Time;durP1;ratioP1;P1;durP2;ratioP2;P2;SDS_P1;SDS_P2;PMS_P1;PMS_P2;Temp;Humidity;BMP_temperature;BMP_pressure;BME280_temperature;BME280_humidity;BME280_pressure;Samples;Min_cycle;Max_cycle;Signal;HPM_P1;HPM_P2
2020/12/12 00:02:00;;;;;;;11.88;6.03;;;9.90;70.50;;;;;;6239614;28;20057;-73
2020/12/12 00:05:01;;;;;;;12.82;6.18;;;9.90;70.50;;;;;;6236337;28;20029;-72
2020/12/12 00:08:03;;;;;;;14.05;6.75;;;9.90;70.50;;;;;;6250956;28;20029;-72
2020/12/12 00:11:04;;;;;;;12.10;6.22;;;9.90;70.50;;;;;;6251117;28;20370;-72
2020/12/12 00:14:05;;;;;;;13.35;6.70;;;9.90;70.40;;;;;;6260939;28;20029;-72
2020/12/12 00:17:05;;;;;;;12.38;6.72;;;9.90;70.40;;;;;;6260562;28;20033;-72
2020/12/12 00:20:06;;;;;;;13.38;6.90;;;9.90;70.30;;;;;;6259030;28;20112;-72
2020/12/12 00:23:07;;;;;;;15.48;7.10;;;9.90;70.20;;;;;;6263373;28;20510;-72
2020/12/12 00:26:08;;;;;;;17.88;8.10;;;9.80;70.00;;;;;;6253238;28;20044;-72
2020/12/12 00:29:10;;;;;;;15.18;7.65;;;9.80;70.10;;;;;;6264756;28;20040;-72
2020/12/12 00:32:11;;;;;;;15.27;7.05;;;9.80;70.10;;;;;;6265626;28;20556;-72
2020/12/12 00:35:12;;;;;;;17.73;8.30;;;9.80;70.20;;;;;;6257702;28;20065;-71
2020/12/12 00:38:13;;;;;;;16.30;7.78;;;9.70;70.10;;;;;;6242671;28;20481;-71
2020/12/12 00:41:14;;;;;;;17.00;7.95;;;9.80;70.10;;;;;;6253329;28;20025;-73
2020/12/12 00:44:16;;;;;;;19.58;9.13;;;9.80;70.00;;;;;;6258942;28;20044;-73
2020/12/12 00:47:17;;;;;;;17.75;8.88;;;9.80;69.90;;;;;;6260677;28;20118;-72
2020/12/12 00:50:18;;;;;;;17.20;8.50;;;9.70;69.80;;;;;;6245283;28;20045;-73
2020/12/12 00:53:19;;;;;;;13.98;7.82;;;9.70;69.80;;;;;;6253081;28;20116;-71
2020/12/12 00:56:20;;;;;;;15.93;8.38;;;9.60;69.70;;;;;;6262121;28;20069;-71
2020/12/12 00:59:21;;;;;;;17.10;8.63;;;9.60;69.80;;;;;;6258689;28;20055;-72
2020/12/12 01:02:22;;;;;;;19.58;9.25;;;9.60;69.80;;;;;;6264282;28;20072;-72
2020/12/12 01:05:23;;;;;;;24.17;11.38;;;9.60;69.70;;;;;;6250918;28;20057;-72
2020/12/12 01:08:25;;;;;;;22.80;10.52;;;9.50;69.70;;;;;;6258848;28;20087;-73
2020/12/12 01:11:26;;;;;;;20.63;10.18;;;9.60;69.60;;;;;;6255585;28;20037;-72
2020/12/12 01:14:26;;;;;;;17.40;8.88;;;9.60;69.60;;;;;;6260428;28;20359;-72
2020/12/12 01:17:27;;;;;;;20.05;9.10;;;9.50;69.30;;;;;;6234453;28;20056;-72
2020/12/12 01:20:28;;;;;;;19.90;10.07;;;9.50;69.30;;;;;;6245113;28;20049;-72
2020/12/12 01:23:29;;;;;;;22.42;9.93;;;9.40;69.30;;;;;;6257904;28;20041;-73
2020/12/12 01:26:31;;;;;;;16.05;8.52;;;9.40;69.60;;;;;;6256772;28;20112;-72
2020/12/12 01:29:32;;;;;;;18.08;8.48;;;9.40;69.70;;;;;;6259467;28;20037;-72
2020/12/12 01:32:33;;;;;;;16.60;8.70;;;9.30;69.70;;;;;;6254263;28;20112;-73
2020/12/12 01:35:34;;;;;;;15.13;8.38;;;9.30;69.90;;;;;;6260377;28;20029;-71
2020/12/12 01:38:35;;;;;;;19.40;9.25;;;9.30;70.00;;;;;;6264933;28;20025;-72
2020/12/12 01:41:36;;;;;;;15.43;8.40;;;9.40;70.10;;;;;;6258884;28;20402;-73
2020/12/12 01:44:37;;;;;;;18.58;8.48;;;9.40;70.00;;;;;;6251720;28;20029;-71
2020/12/12 01:47:39;;;;;;;17.23;8.95;;;9.40;70.10;;;;;;6271020;28;20051;-71
2020/12/12 01:50:40;;;;;;;17.92;8.30;;;9.40;69.90;;;;;;6270572;28;20111;-70
2020/12/12 01:53:42;;;;;;;16.38;8.02;;;9.30;69.80;;;;;;6273689;28;20033;-72
2020/12/12 01:56:45;;;;;;;16.80;8.45;;;9.30;70.10;;;;;;6269068;28;20037;-73
2020/12/12 01:59:51;;;;;;;19.95;8.75;;;9.20;70.20;;;;;;6273017;28;20105;-72
2020/12/12 02:02:54;;;;;;;16.35;7.90;;;9.30;70.40;;;;;;6269792;28;20037;-72
2020/12/12 02:05:59;;;;;;;14.05;7.95;;;9.30;70.50;;;;;;6281507;28;20485;-72
2020/12/12 02:09:00;;;;;;;13.85;7.45;;;9.30;70.40;;;;;;6268381;28;20128;-71
2020/12/12 02:12:01;;;;;;;17.40;8.45;;;9.30;70.40;;;;;;6258792;28;20040;-71
2020/12/12 02:15:02;;;;;;;14.23;7.07;;;9.40;70.30;;;;;;6244372;28;20041;-71
2020/12/12 02:18:18;;;;;;;15.85;8.07;;;9.40;70.30;;;;;;6235722;28;20045;-72
2020/12/12 02:21:20;;;;;;;14.20;7.20;;;9.40;70.30;;;;;;6275175;28;20095;-74
2020/12/12 02:24:21;;;;;;;13.57;7.88;;;9.40;70.10;;;;;;6263789;28;20041;-71
2020/12/12 02:27:22;;;;;;;19.02;9.07;;;9.40;70.00;;;;;;6246952;28;20043;-71
2020/12/12 02:30:23;;;;;;;17.73;8.77;;;9.30;70.00;;;;;;6256048;28;20355;-72
2020/12/12 02:33:24;;;;;;;15.82;7.35;;;9.30;70.10;;;;;;6270946;28;20049;-73
2020/12/12 02:36:25;;;;;;;15.20;7.93;;;9.30;70.30;;;;;;6261112;28;20056;-73
2020/12/12 02:39:26;;;;;;;14.57;7.97;;;9.30;70.30;;;;;;6258518;28;20458;-73
2020/12/12 02:42:27;;;;;;;18.58;8.10;;;9.20;70.20;;;;;;6251994;28;20037;-72
2020/12/12 02:45:28;;;;;;;12.43;7.60;;;9.20;70.20;;;;;;6264177;28;20048;-72
2020/12/12 02:48:29;;;;;;;16.10;6.78;;;9.20;70.20;;;;;;6263217;28;20033;-72
2020/12/12 02:51:30;;;;;;;18.08;7.30;;;9.20;70.00;;;;;;6245521;28;20033;-71
2020/12/12 02:54:31;;;;;;;17.20;7.93;;;9.10;70.00;;;;;;6246255;28;20041;-72
2020/12/12 02:57:33;;;;;;;16.23;8.40;;;9.10;70.10;;;;;;6236602;28;20053;-72
2020/12/12 03:00:34;;;;;;;16.88;8.35;;;9.10;70.30;;;;;;6222626;28;20057;-73
2020/12/12 03:03:35;;;;;;;14.23;6.80;;;9.00;70.40;;;;;;6232429;28;20045;-73
2020/12/12 03:06:38;;;;;;;14.63;7.15;;;9.00;70.60;;;;;;6247388;28;20199;-72
2020/12/12 03:09:40;;;;;;;11.70;7.10;;;9.00;70.70;;;;;;6255367;28;20033;-73
2020/12/12 03:12:41;;;;;;;18.90;8.40;;;9.00;70.80;;;;;;6243825;28;20044;-71
2020/12/12 03:15:43;;;;;;;14.13;7.85;;;9.00;70.90;;;;;;6253672;28;20113;-73
2020/12/12 03:18:43;;;;;;;14.75;6.80;;;9.00;71.00;;;;;;6255375;28;20030;-71
2020/12/12 03:21:45;;;;;;;13.85;7.53;;;9.00;71.20;;;;;;6255437;28;20459;-71
2020/12/12 03:24:46;;;;;;;13.85;7.13;;;9.00;71.20;;;;;;6239244;28;20025;-71
2020/12/12 03:27:47;;;;;;;12.07;7.35;;;9.00;71.00;;;;;;6261134;28;20033;-72
2020/12/12 03:30:54;;;;;;;15.20;7.20;;;9.00;71.10;;;;;;6259979;28;20060;-71
2020/12/12 03:33:55;;;;;;;19.38;7.43;;;9.00;71.00;;;;;;6258932;28;20095;-72
2020/12/12 03:36:56;;;;;;;14.80;7.75;;;9.00;71.00;;;;;;6257674;28;20056;-72
2020/12/12 03:39:57;;;;;;;15.88;7.65;;;9.00;71.00;;;;;;6263438;28;20041;-72
2020/12/12 03:42:58;;;;;;;15.68;7.60;;;9.00;71.10;;;;;;6257068;28;20053;-73
2020/12/12 03:46:01;;;;;;;12.23;6.22;;;9.10;71.10;;;;;;6255759;28;20279;-74
2020/12/12 03:49:02;;;;;;;16.38;8.02;;;9.10;71.10;;;;;;6263132;28;20040;-73
2020/12/12 03:52:03;;;;;;;12.00;6.60;;;9.10;71.00;;;;;;6259880;28;20033;-73
2020/12/12 03:55:04;;;;;;;13.70;7.20;;;9.10;70.90;;;;;;6232275;28;20057;-71
2020/12/12 03:58:06;;;;;;;13.98;7.72;;;9.10;70.70;;;;;;6227428;28;20048;-73
2020/12/12 04:01:08;;;;;;;12.10;6.07;;;9.20;70.70;;;;;;6231353;28;20037;-72
2020/12/12 04:04:09;;;;;;;14.02;7.07;;;9.20;70.70;;;;;;6244086;28;20116;-72
2020/12/12 04:07:10;;;;;;;11.25;6.38;;;9.10;70.40;;;;;;6221539;28;20084;-72
2020/12/12 04:10:11;;;;;;;10.43;5.63;;;9.10;70.30;;;;;;6226952;28;20045;-72
2020/12/12 04:13:12;;;;;;;12.75;7.10;;;9.10;70.20;;;;;;6228063;28;20038;-71
2020/12/12 04:16:13;;;;;;;16.80;6.82;;;9.10;70.30;;;;;;6240101;28;20493;-72
2020/12/12 04:19:13;;;;;;;16.75;7.82;;;9.00;70.40;;;;;;6220476;28;20029;-72
2020/12/12 04:22:14;;;;;;;17.98;7.32;;;9.00;70.60;;;;;;6237542;28;20429;-72
2020/12/12 04:25:15;;;;;;;13.25;6.95;;;9.00;70.70;;;;;;6234846;28;20045;-73
2020/12/12 04:28:16;;;;;;;12.65;6.07;;;9.00;70.70;;;;;;6238558;28;20061;-73
2020/12/12 04:31:17;;;;;;;11.80;6.25;;;9.00;70.70;;;;;;6240406;28;20117;-72
2020/12/12 04:34:18;;;;;;;13.95;6.65;;;9.10;70.60;;;;;;6238389;28;20040;-71
2020/12/12 04:37:19;;;;;;;17.50;6.82;;;9.00;70.70;;;;;;6237071;28;20046;-72
2020/12/12 04:40:21;;;;;;;16.08;7.10;;;9.10;70.70;;;;;;6238669;28;20107;-71
2020/12/12 04:43:22;;;;;;;9.95;6.18;;;9.10;70.60;;;;;;6237361;28;20065;-73
2020/12/12 04:46:23;;;;;;;14.45;6.45;;;9.10;70.60;;;;;;6235992;28;20040;-71
2020/12/12 04:49:24;;;;;;;14.85;6.63;;;9.10;70.60;;;;;;6214574;28;20086;-72
2020/12/12 04:52:29;;;;;;;14.00;7.18;;;9.10;70.70;;;;;;6237800;28;20514;-72
2020/12/12 04:55:30;;;;;;;17.20;6.75;;;9.10;70.70;;;;;;6219138;28;20117;-72
2020/12/12 04:58:32;;;;;;;15.85;7.20;;;9.10;70.60;;;;;;6233065;28;20378;-72
2020/12/12 05:01:33;;;;;;;17.08;7.28;;;9.10;70.70;;;;;;6220319;28;20045;-72
2020/12/12 05:04:34;;;;;;;12.10;6.20;;;9.20;70.70;;;;;;6223006;28;20470;-72
2020/12/12 05:07:35;;;;;;;10.20;6.32;;;9.10;70.60;;;;;;6236559;28;20447;-72
2020/12/12 05:10:40;;;;;;;9.90;5.57;;;9.10;70.40;;;;;;6239388;28;20041;-72
2020/12/12 05:13:41;;;;;;;12.73;7.05;;;9.10;70.50;;;;;;6212890;28;20037;-72
2020/12/12 05:16:46;;;;;;;17.52;7.47;;;9.10;70.50;;;;;;6230951;28;20038;-72
2020/12/12 05:19:48;;;;;;;9.75;5.57;;;9.10;70.60;;;;;;6242784;28;20071;-71
2020/12/12 05:22:50;;;;;;;14.82;6.43;;;9.10;70.50;;;;;;6239961;28;20033;-72
2020/12/12 05:25:52;;;;;;;10.25;5.85;;;9.10;70.50;;;;;;6231439;28;20421;-72
2020/12/12 05:28:58;;;;;;;12.27;6.38;;;9.10;70.60;;;;;;6260349;28;20878;-72
2020/12/12 05:31:59;;;;;;;14.52;6.38;;;9.10;70.60;;;;;;6257697;28;20497;-72
2020/12/12 05:35:00;;;;;;;13.32;6.03;;;9.10;70.60;;;;;;6256846;28;20041;-72
2020/12/12 05:38:03;;;;;;;9.60;5.60;;;9.10;70.50;;;;;;6255437;28;20356;-72
2020/12/12 05:41:04;;;;;;;10.55;6.10;;;9.10;70.50;;;;;;6262151;28;20030;-72
2020/12/12 05:44:05;;;;;;;11.23;6.57;;;9.10;70.60;;;;;;6243642;28;20374;-72
2020/12/12 05:47:06;;;;;;;12.77;6.25;;;9.10;70.70;;;;;;6257963;28;20052;-71
2020/12/12 05:50:07;;;;;;;13.45;6.18;;;9.10;70.50;;;;;;6252600;28;20030;-72
2020/12/12 05:53:09;;;;;;;13.10;6.53;;;9.10;70.50;;;;;;6257525;28;20041;-72
2020/12/12 05:56:13;;;;;;;11.20;5.55;;;9.20;70.70;;;;;;6259944;28;20034;-72
2020/12/12 05:59:16;;;;;;;14.52;6.50;;;9.20;70.60;;;;;;6249968;28;20021;-71
2020/12/12 06:02:23;;;;;;;12.65;6.60;;;9.20;70.50;;;;;;6252182;28;20026;-72
2020/12/12 06:05:26;;;;;;;12.38;6.60;;;9.20;70.40;;;;;;6260418;28;20029;-72
2020/12/12 06:08:37;;;;;;;12.15;5.78;;;9.20;70.40;;;;;;6255475;28;20026;-73
2020/12/12 06:11:41;;;;;;;11.95;6.10;;;9.20;70.40;;;;;;6244687;28;20033;-73
2020/12/12 06:14:44;;;;;;;12.68;6.50;;;9.20;70.30;;;;;;6256948;28;20037;-72
2020/12/12 06:18:12;;;;;;;12.20;6.78;;;9.20;70.30;;;;;;6255945;28;20048;-72
2020/12/12 06:21:14;;;;;;;11.18;6.07;;;9.20;70.30;;;;;;6256630;28;20362;-72
2020/12/12 06:24:17;;;;;;;15.88;6.20;;;9.20;70.40;;;;;;6260782;28;20029;-72
2020/12/12 06:27:19;;;;;;;13.45;6.72;;;9.20;70.30;;;;;;6247030;28;20041;-73
2020/12/12 06:30:23;;;;;;;11.60;5.72;;;9.20;70.10;;;;;;6255224;28;20040;-72
2020/12/12 06:33:24;;;;;;;13.63;6.82;;;9.20;70.30;;;;;;6254555;28;20087;-73
2020/12/12 06:36:30;;;;;;;15.93;6.45;;;9.20;70.20;;;;;;6263259;28;20036;-72
2020/12/12 06:39:31;;;;;;;17.17;6.85;;;9.20;70.20;;;;;;6259399;28;20034;-72
2020/12/12 06:42:33;;;;;;;13.73;7.45;;;9.20;70.30;;;;;;6251277;28;20029;-72
2020/12/12 06:45:34;;;;;;;19.73;7.28;;;9.20;70.30;;;;;;6232667;28;20075;-73
2020/12/12 06:48:35;;;;;;;18.55;7.35;;;9.20;70.30;;;;;;6231446;28;20087;-73
2020/12/12 06:51:36;;;;;;;10.30;5.97;;;9.20;70.20;;;;;;6230318;28;20470;-73
2020/12/12 06:54:37;;;;;;;13.13;6.43;;;9.10;70.20;;;;;;6231260;28;20029;-73
2020/12/12 06:57:46;;;;;;;13.55;7.25;;;9.20;70.40;;;;;;6238234;28;20619;-73
2020/12/12 07:00:47;;;;;;;11.02;6.07;;;9.10;70.40;;;;;;6262765;28;20041;-73
2020/12/12 07:03:58;;;;;;;11.85;6.15;;;9.10;70.40;;;;;;6262064;28;20044;-73
2020/12/12 07:07:07;;;;;;;22.73;6.75;;;9.20;70.40;;;;;;6260236;28;20044;-73
2020/12/12 07:10:09;;;;;;;17.30;6.85;;;9.20;70.20;;;;;;6263731;28;20047;-73
2020/12/12 07:13:12;;;;;;;13.90;7.50;;;9.20;70.30;;;;;;6260501;28;20033;-74
2020/12/12 07:16:14;;;;;;;12.18;6.68;;;9.10;70.30;;;;;;6262772;28;20148;-74
2020/12/12 07:19:18;;;;;;;14.38;6.78;;;9.10;70.30;;;;;;6262256;28;20029;-74
2020/12/12 07:22:19;;;;;;;17.38;7.07;;;9.10;70.40;;;;;;6261725;28;20041;-71
2020/12/12 07:25:20;;;;;;;15.43;7.47;;;9.10;70.40;;;;;;6243255;28;20033;-73
2020/12/12 07:28:20;;;;;;;15.20;6.63;;;9.10;70.60;;;;;;6257675;28;20052;-74
2020/12/12 07:31:23;;;;;;;12.15;6.75;;;9.10;70.60;;;;;;6263902;28;20030;-74
2020/12/12 07:34:25;;;;;;;14.00;6.60;;;9.20;70.60;;;;;;6260657;28;20036;-72
2020/12/12 07:37:26;;;;;;;10.80;6.40;;;9.20;70.50;;;;;;6259545;28;20452;-73
2020/12/12 07:40:37;;;;;;;9.68;5.18;;;9.20;70.40;;;;;;6252465;28;20026;-73
2020/12/12 07:43:57;;;;;;;11.85;6.15;;;9.20;70.30;;;;;;6240530;28;20045;-73
2020/12/12 07:47:03;;;;;;;16.27;6.03;;;9.20;70.20;;;;;;6265920;28;20045;-73
2020/12/12 07:50:05;;;;;;;15.18;6.47;;;9.20;70.30;;;;;;6263203;28;20041;-73
2020/12/12 07:53:07;;;;;;;12.05;6.82;;;9.20;70.30;;;;;;6259679;28;20414;-73
2020/12/12 07:56:08;;;;;;;9.32;5.85;;;9.20;70.30;;;;;;6249373;28;20133;-73
2020/12/12 07:59:13;;;;;;;13.88;6.47;;;9.20;70.40;;;;;;6263728;28;20044;-73
2020/12/12 08:02:14;;;;;;;12.32;6.60;;;9.20;70.40;;;;;;6264275;28;20033;-73
2020/12/12 08:05:19;;;;;;;12.80;6.35;;;9.20;70.50;;;;;;6248054;28;20033;-73
2020/12/12 08:08:20;;;;;;;13.73;6.00;;;9.20;71.20;;;;;;6257531;28;20033;-72
2020/12/12 08:11:22;;;;;;;10.07;5.97;;;9.30;70.40;;;;;;6265864;28;20474;-73
2020/12/12 08:14:24;;;;;;;14.70;6.60;;;9.30;70.30;;;;;;6264241;28;20037;-73
2020/12/12 08:17:50;;;;;;;11.68;6.82;;;9.40;70.30;;;;;;6260121;28;20124;-73
2020/12/12 08:20:51;;;;;;;13.65;6.55;;;9.30;70.20;;;;;;6263845;28;20060;-73
2020/12/12 08:23:52;;;;;;;14.57;7.28;;;9.40;70.50;;;;;;6245600;28;20036;-74
2020/12/12 08:26:54;;;;;;;13.23;7.03;;;9.40;70.40;;;;;;6258450;28;20030;-73
2020/12/12 08:29:57;;;;;;;14.07;6.28;;;9.40;70.20;;;;;;6247791;28;20084;-73
2020/12/12 08:33:11;;;;;;;13.23;6.88;;;9.50;70.20;;;;;;6258805;28;20123;-73
2020/12/12 08:36:17;;;;;;;10.60;5.57;;;9.50;70.20;;;;;;6269046;28;20033;-74
2020/12/12 08:39:25;;;;;;;13.77;6.05;;;9.50;71.00;;;;;;6260799;28;20056;-74
2020/12/12 08:42:26;;;;;;;13.83;7.63;;;9.50;70.00;;;;;;6261641;28;20044;-74
2020/12/12 08:45:28;;;;;;;12.23;7.07;;;9.50;70.00;;;;;;6263073;28;20288;-74
2020/12/12 08:48:33;;;;;;;12.55;7.05;;;9.60;70.20;;;;;;6242073;28;20045;-72
2020/12/12 08:51:36;;;;;;;18.48;7.70;;;9.60;70.20;;;;;;6249462;28;20056;-74
2020/12/12 08:54:36;;;;;;;12.25;7.25;;;9.60;70.10;;;;;;6249009;28;20116;-71
2020/12/12 08:57:37;;;;;;;14.43;7.10;;;9.70;70.10;;;;;;6261516;28;20052;-72
2020/12/12 09:00:38;;;;;;;13.00;7.20;;;9.70;70.10;;;;;;6264807;28;20056;-73
2020/12/12 09:03:54;;;;;;;14.70;6.80;;;9.80;70.10;;;;;;6259796;28;20036;-73
2020/12/12 09:06:59;;;;;;;12.90;7.35;;;9.90;70.00;;;;;;6259909;28;20415;-73
2020/12/12 09:10:12;;;;;;;18.30;7.60;;;9.90;69.80;;;;;;6243011;28;20118;-72
2020/12/12 09:13:14;;;;;;;18.55;7.85;;;9.90;69.60;;;;;;6269533;28;20041;-73
2020/12/12 09:16:17;;;;;;;11.27;6.15;;;9.90;69.60;;;;;;6258033;28;20029;-74
2020/12/12 09:19:21;;;;;;;15.02;6.90;;;9.90;69.60;;;;;;6233556;28;20129;-73
2020/12/12 09:22:21;;;;;;;19.55;7.47;;;10.00;69.80;;;;;;6234148;28;20030;-73
2020/12/12 09:25:22;;;;;;;11.90;6.88;;;10.00;69.80;;;;;;6245448;28;20038;-74
2020/12/12 09:28:23;;;;;;;12.85;6.45;;;10.10;69.60;;;;;;6237428;28;20029;-73
2020/12/12 09:31:25;;;;;;;17.55;6.93;;;10.10;69.50;;;;;;6232262;28;20049;-73
2020/12/12 09:34:26;;;;;;;20.50;6.90;;;10.10;69.50;;;;;;6218523;28;20466;-72
2020/12/12 09:37:27;;;;;;;11.90;6.38;;;10.10;69.50;;;;;;6259209;28;20137;-73
2020/12/12 09:40:28;;;;;;;9.90;5.85;;;10.10;69.40;;;;;;6250565;28;20044;-73
2020/12/12 09:43:29;;;;;;;11.65;6.13;;;10.10;69.30;;;;;;6247152;28;20042;-72
2020/12/12 09:46:30;;;;;;;12.88;6.85;;;10.10;69.30;;;;;;6256765;28;20036;-73
2020/12/12 09:49:31;;;;;;;12.23;6.55;;;10.20;69.60;;;;;;6253127;28;20359;-73
2020/12/12 09:52:32;;;;;;;11.63;6.55;;;10.20;70.30;;;;;;6255035;28;20125;-73
2020/12/12 09:55:34;;;;;;;15.95;7.60;;;10.30;69.40;;;;;;6263718;28;20043;-73
2020/12/12 09:58:35;;;;;;;15.73;7.10;;;10.40;69.20;;;;;;6240712;28;20124;-73
2020/12/12 10:01:36;;;;;;;16.20;8.38;;;10.60;69.00;;;;;;6250375;28;20055;-72
2020/12/12 10:04:37;;;;;;;14.35;7.95;;;10.80;68.90;;;;;;6256772;28;20378;-73
2020/12/12 10:07:39;;;;;;;13.82;7.65;;;11.00;68.60;;;;;;6260258;28;20025;-74
2020/12/12 10:10:41;;;;;;;14.02;7.43;;;11.20;68.30;;;;;;6241656;28;20030;-74
2020/12/12 10:13:42;;;;;;;13.75;6.82;;;11.40;68.10;;;;;;6241456;28;20079;-73
2020/12/12 10:16:43;;;;;;;17.15;7.10;;;11.40;67.20;;;;;;6254913;28;20033;-73
2020/12/12 10:19:44;;;;;;;16.50;7.35;;;11.40;66.50;;;;;;6257941;28;20044;-74
2020/12/12 10:22:46;;;;;;;20.17;9.65;;;11.40;66.40;;;;;;6259021;28;20048;-74
2020/12/12 10:25:47;;;;;;;12.02;6.38;;;11.30;66.40;;;;;;6255908;28;20418;-73
2020/12/12 10:28:48;;;;;;;11.23;6.57;;;11.30;66.40;;;;;;6262508;28;20068;-73
2020/12/12 10:31:49;;;;;;;19.20;7.25;;;11.20;66.40;;;;;;6253680;28;20083;-73
2020/12/12 10:34:50;;;;;;;13.73;7.15;;;11.20;66.60;;;;;;6255271;28;20033;-74
2020/12/12 10:37:51;;;;;;;14.60;7.60;;;11.20;66.70;;;;;;6250463;28;20048;-72
2020/12/12 10:41:01;;;;;;;14.38;7.53;;;11.20;66.90;;;;;;6256798;28;20170;-74
2020/12/12 10:44:08;;;;;;;13.63;7.47;;;11.30;66.90;;;;;;6234632;28;20153;-73
2020/12/12 10:47:11;;;;;;;12.82;7.95;;;11.30;66.50;;;;;;6225949;28;20072;-74
2020/12/12 10:50:12;;;;;;;17.70;8.40;;;11.30;66.40;;;;;;6235902;28;20038;-73
2020/12/12 10:53:13;;;;;;;14.70;8.55;;;11.30;66.50;;;;;;6243350;28;20131;-72
2020/12/12 10:56:14;;;;;;;14.55;8.60;;;11.30;66.70;;;;;;6255362;28;20040;-74
2020/12/12 10:59:15;;;;;;;16.95;8.85;;;11.30;66.70;;;;;;6254108;28;20378;-73
2020/12/12 11:02:16;;;;;;;20.17;9.63;;;11.20;66.70;;;;;;6257703;28;20025;-73
2020/12/12 11:05:17;;;;;;;17.70;8.57;;;11.30;67.00;;;;;;6241704;28;20474;-74
2020/12/12 11:08:18;;;;;;;19.05;8.95;;;11.30;67.00;;;;;;6251577;28;20037;-75
2020/12/12 11:11:19;;;;;;;17.98;8.95;;;11.20;67.00;;;;;;6248567;28;20132;-74
2020/12/12 11:14:20;;;;;;;13.55;8.13;;;11.30;67.10;;;;;;6220824;28;20463;-74
2020/12/12 11:17:21;;;;;;;17.50;8.10;;;11.30;67.10;;;;;;6249042;28;20041;-74
2020/12/12 11:20:22;;;;;;;20.17;8.60;;;11.30;67.30;;;;;;6217482;28;20435;-73
2020/12/12 11:23:23;;;;;;;18.25;8.10;;;11.30;67.40;;;;;;6230439;28;20061;-73
2020/12/12 11:26:24;;;;;;;15.48;7.72;;;11.30;67.50;;;;;;6229100;28;20128;-74
2020/12/12 11:29:25;;;;;;;14.35;7.78;;;11.20;67.60;;;;;;6229049;28;20025;-74
2020/12/12 11:32:26;;;;;;;12.43;7.32;;;11.20;67.70;;;;;;6227079;28;20538;-73
2020/12/12 11:35:39;;;;;;;15.05;7.97;;;11.20;67.90;;;;;;6227062;28;20115;-74
2020/12/12 11:39:04;;;;;;;13.55;7.43;;;11.10;68.00;;;;;;6250341;28;20063;-76
2020/12/12 11:43:25;;;;;;;15.52;7.78;;;11.10;68.10;;;;;;6239307;28;20532;-73
2020/12/12 11:45:48;;;;;;;18.33;8.93;;;11.00;68.20;;;;;;6243195;28;20458;-73
2020/12/12 11:48:51;;;;;;;15.70;7.95;;;11.10;68.70;;;;;;6257224;28;20045;-73
2020/12/12 11:51:52;;;;;;;14.32;8.45;;;10.90;68.70;;;;;;6260416;28;20416;-73
2020/12/12 11:54:53;;;;;;;18.27;9.10;;;10.90;68.90;;;;;;6261190;28;20045;-74
2020/12/12 11:57:54;;;;;;;19.33;9.15;;;10.90;69.10;;;;;;6259028;28;20045;-73
2020/12/12 12:00:55;;;;;;;19.75;9.13;;;10.80;69.30;;;;;;6259558;28;20343;-72
2020/12/12 12:04:02;;;;;;;14.95;8.75;;;10.80;69.40;;;;;;6256354;28;20521;-74
2020/12/12 12:07:05;;;;;;;16.00;8.25;;;10.80;69.50;;;;;;6261963;28;20046;-74
2020/12/12 12:10:13;;;;;;;14.55;8.50;;;10.80;69.50;;;;;;6255336;28;20033;-74
2020/12/12 12:13:13;;;;;;;15.83;7.37;;;10.90;69.60;;;;;;6258156;28;20052;-73
2020/12/12 12:16:20;;;;;;;16.00;8.00;;;11.00;69.50;;;;;;6249436;28;20038;-72
2020/12/12 12:19:21;;;;;;;17.85;9.20;;;11.10;69.50;;;;;;6246814;28;20469;-73
2020/12/12 12:22:22;;;;;;;19.17;9.80;;;11.20;69.40;;;;;;6246840;28;20029;-73
2020/12/12 12:25:23;;;;;;;18.58;9.27;;;11.30;69.30;;;;;;6237578;28;20336;-73
2020/12/12 12:28:25;;;;;;;17.27;9.40;;;11.40;69.10;;;;;;6219930;28;20061;-74
2020/12/12 12:31:25;;;;;;;17.33;9.95;;;11.50;69.00;;;;;;6229831;28;20040;-72
2020/12/12 12:34:29;;;;;;;17.05;8.90;;;11.50;68.80;;;;;;6237858;28;20040;-73
2020/12/12 12:37:30;;;;;;;18.52;9.00;;;11.50;68.60;;;;;;6222340;28;20053;-74
2020/12/12 12:40:32;;;;;;;19.25;9.77;;;11.50;68.50;;;;;;6235711;28;20131;-73
2020/12/12 12:43:33;;;;;;;18.10;7.90;;;11.50;68.60;;;;;;6237741;28;20041;-72
2020/12/12 12:46:38;;;;;;;17.85;9.10;;;11.50;68.70;;;;;;6232681;28;20117;-73
2020/12/12 12:49:39;;;;;;;18.58;8.55;;;11.40;68.70;;;;;;6249021;28;20034;-74
2020/12/12 12:52:41;;;;;;;26.23;10.50;;;11.50;68.80;;;;;;6246419;28;20454;-74
2020/12/12 12:55:42;;;;;;;20.05;8.27;;;11.60;68.70;;;;;;6241805;28;20039;-74
2020/12/12 12:58:43;;;;;;;15.73;8.00;;;11.60;68.60;;;;;;6275420;28;20128;-73
2020/12/12 13:01:45;;;;;;;15.95;8.52;;;11.60;68.40;;;;;;6258266;28;20034;-73
2020/12/12 13:04:46;;;;;;;14.70;8.07;;;11.60;68.40;;;;;;6255326;28;20471;-74
2020/12/12 13:07:47;;;;;;;16.42;8.30;;;11.50;68.40;;;;;;6257690;28;20136;-74
2020/12/12 13:10:48;;;;;;;14.80;7.93;;;11.50;68.50;;;;;;6261174;28;20348;-74
2020/12/12 13:13:49;;;;;;;15.60;7.88;;;11.50;68.50;;;;;;6256931;28;20033;-73
2020/12/12 13:16:52;;;;;;;15.98;8.02;;;11.50;68.60;;;;;;6261196;28;20068;-74
2020/12/12 13:20:04;;;;;;;12.77;6.75;;;11.50;68.60;;;;;;6254632;28;20537;-73
2020/12/12 13:23:05;;;;;;;17.58;8.55;;;11.40;68.50;;;;;;6239838;28;20037;-72
2020/12/12 13:26:07;;;;;;;18.55;8.85;;;11.30;68.70;;;;;;6255945;28;20032;-73
2020/12/12 13:32:28;;;;;;;15.98;7.70;;;11.30;68.90;;;;;;6249645;28;20034;-73
2020/12/12 13:35:29;;;;;;;16.05;7.53;;;11.20;68.90;;;;;;6245304;28;20068;-73
2020/12/12 13:38:30;;;;;;;16.45;8.02;;;11.30;69.10;;;;;;6219807;28;20038;-72
2020/12/12 13:41:31;;;;;;;12.93;7.00;;;11.20;69.20;;;;;;6253187;28;20052;-74
2020/12/12 13:44:32;;;;;;;10.35;6.60;;;11.30;69.20;;;;;;6256159;28;20055;-74
2020/12/12 13:47:34;;;;;;;12.13;6.13;;;11.30;69.30;;;;;;6258388;28;20033;-73
2020/12/12 13:50:35;;;;;;;10.95;6.28;;;11.30;69.10;;;;;;6257094;28;20052;-74
2020/12/12 13:53:36;;;;;;;19.55;8.95;;;11.20;68.80;;;;;;6216192;28;20144;-74
2020/12/12 13:56:37;;;;;;;19.48;7.70;;;11.20;68.90;;;;;;6218644;28;20041;-74
2020/12/12 13:59:38;;;;;;;18.05;7.82;;;11.20;69.00;;;;;;6231041;28;20136;-74
2020/12/12 14:02:40;;;;;;;16.92;7.32;;;11.10;69.10;;;;;;6231672;28;20041;-75
2020/12/12 14:05:55;;;;;;;15.00;6.93;;;11.10;69.20;;;;;;6234086;28;20038;-73
2020/12/12 14:22:38;;;;;;;12.15;6.30;;;11.20;69.70;;;;;;6253960;28;20242;-74
2020/12/12 14:25:40;;;;;;;13.75;6.57;;;11.10;69.50;;;;;;6236833;28;20048;-73
2020/12/12 14:28:43;;;;;;;11.55;5.35;;;11.20;69.70;;;;;;6257321;28;20099;-73
2020/12/12 14:31:44;;;;;;;9.98;5.82;;;11.10;69.80;;;;;;6239774;28;20482;-74
2020/12/12 14:34:45;;;;;;;9.98;5.75;;;11.10;69.80;;;;;;6248526;28;20037;-74
2020/12/12 14:37:46;;;;;;;9.27;4.78;;;11.10;69.90;;;;;;6246206;28;20033;-73
2020/12/12 14:40:46;;;;;;;13.80;6.40;;;11.10;69.80;;;;;;6253966;28;20037;-75
2020/12/12 14:43:48;;;;;;;13.27;5.97;;;11.00;69.20;;;;;;6255295;28;20045;-74
2020/12/12 14:46:50;;;;;;;14.93;6.22;;;11.00;70.10;;;;;;6242150;28;20532;-74
2020/12/12 14:49:51;;;;;;;13.02;6.10;;;11.00;70.00;;;;;;6250572;28;20079;-74
2020/12/12 14:52:52;;;;;;;12.23;5.88;;;11.00;70.20;;;;;;6251123;28;20061;-73
2020/12/12 14:55:54;;;;;;;14.75;6.65;;;10.90;70.10;;;;;;6223130;28;20471;-73
2020/12/12 14:58:55;;;;;;;12.55;6.05;;;10.90;70.30;;;;;;6250535;28;20131;-73
2020/12/12 15:01:56;;;;;;;12.02;6.38;;;10.90;70.40;;;;;;6251511;28;20033;-75
2020/12/12 15:04:57;;;;;;;11.27;6.28;;;10.90;70.50;;;;;;6256559;28;20083;-74
2020/12/12 15:07:58;;;;;;;16.15;7.63;;;10.90;70.50;;;;;;6252987;28;22025;-73
2020/12/12 15:10:58;;;;;;;14.13;6.65;;;10.90;70.70;;;;;;6232340;28;20323;-72
2020/12/12 15:13:59;;;;;;;16.25;7.20;;;10.90;70.60;;;;;;6219842;28;20069;-73
2020/12/12 15:17:01;;;;;;;15.32;7.07;;;10.90;70.70;;;;;;6237655;28;20050;-74
2020/12/12 15:20:03;;;;;;;29.25;12.25;;;10.90;70.80;;;;;;6233024;28;20053;-74
2020/12/12 15:23:04;;;;;;;22.17;9.90;;;10.80;70.80;;;;;;6234741;28;20159;-73
2020/12/12 15:26:07;;;;;;;16.55;7.50;;;10.80;71.00;;;;;;6260717;28;20036;-74
2020/12/12 15:29:08;;;;;;;18.35;7.72;;;10.80;71.10;;;;;;6247602;28;20067;-74
2020/12/12 15:32:13;;;;;;;20.63;8.45;;;10.80;71.30;;;;;;6260632;28;20037;-74
2020/12/12 15:35:14;;;;;;;17.10;8.27;;;10.80;71.30;;;;;;6254621;28;20411;-73
2020/12/12 15:38:15;;;;;;;18.58;8.15;;;10.80;72.30;;;;;;6245750;28;20145;-73
2020/12/12 15:41:16;;;;;;;24.80;12.60;;;10.80;71.40;;;;;;6253731;28;20042;-74
2020/12/12 15:44:19;;;;;;;11.80;6.78;;;10.90;71.30;;;;;;6260027;28;20040;-74
2020/12/12 15:47:20;;;;;;;19.20;8.50;;;10.90;71.30;;;;;;6266493;28;20029;-72
2020/12/12 15:50:21;;;;;;;13.18;6.60;;;10.90;71.40;;;;;;6255959;28;20044;-73
2020/12/12 15:53:22;;;;;;;21.83;10.70;;;10.80;71.50;;;;;;6245859;28;20099;-73
2020/12/12 15:56:30;;;;;;;11.60;6.38;;;10.80;71.60;;;;;;6243758;28;20116;-73
2020/12/12 15:59:31;;;;;;;12.98;7.07;;;10.90;71.70;;;;;;6257115;28;20032;-73
2020/12/12 16:02:32;;;;;;;13.20;6.93;;;10.80;71.50;;;;;;6261066;28;20057;-75